sensor_id;sensor_type;location;lat;lon;timestamp;P1;durP1;ratioP1;P2;durP2;ratioP2
1479;SDS011;732;51.698;4.886;2023-04-16T00:01:16;8.53;;;4.20;;
1479;SDS011;732;51.698;4.886;2023-04-16T00:03:45;7.43;;;4.13;;
1479;SDS011;732;51.698;4.886;2023-04-16T00:06:14;10.63;;;4.90;;
1479;SDS011;732;51.698;4.886;2023-04-16T00:08:44;9.80;;;5.03;;
1479;SDS011;732;51.698;4.886;2023-04-16T00:11:12;7.70;;;5.50;;
1479;SDS011;732;51.698;4.886;2023-04-16T00:13:41;13.43;;;6.13;;
1479;SDS011;732;51.698;4.886;2023-04-16T00:16:11;13.57;;;5.73;;
1479;SDS011;732;51.698;4.886;2023-04-16T00:18:40;16.57;;;7.20;;
1479;SDS011;732;51.698;4.886;2023-04-16T00:21:10;16.70;;;7.27;;
1479;SDS011;732;51.698;4.886;2023-04-16T00:23:38;15.60;;;7.40;;
1479;SDS011;732;51.698;4.886;2023-04-16T00:26:07;14.27;;;7.97;;
1479;SDS011;732;51.698;4.886;2023-04-16T00:28:36;11.30;;;8.47;;
1479;SDS011;732;51.698;4.886;2023-04-16T00:31:04;17.83;;;8.50;;
1479;SDS011;732;51.698;4.886;2023-04-16T00:33:35;20.13;;;9.87;;
1479;SDS011;732;51.698;4.886;2023-04-16T00:36:03;18.40;;;8.40;;
1479;SDS011;732;51.698;4.886;2023-04-16T00:38:32;20.13;;;9.33;;
1479;SDS011;732;51.698;4.886;2023-04-16T00:41:01;19.77;;;10.37;;
1479;SDS011;732;51.698;4.886;2023-04-16T00:43:30;21.70;;;10.03;;
1479;SDS011;732;51.698;4.886;2023-04-16T00:46:00;21.27;;;10.57;;
1479;SDS011;732;51.698;4.886;2023-04-16T00:48:34;16.80;;;9.87;;
1479;SDS011;732;51.698;4.886;2023-04-16T00:51:04;24.07;;;10.23;;
1479;SDS011;732;51.698;4.886;2023-04-16T00:53:34;19.97;;;11.97;;
1479;SDS011;732;51.698;4.886;2023-04-16T00:56:03;28.67;;;12.33;;
1479;SDS011;732;51.698;4.886;2023-04-16T00:58:33;18.13;;;12.60;;
1479;SDS011;732;51.698;4.886;2023-04-16T01:01:02;30.47;;;13.90;;
1479;SDS011;732;51.698;4.886;2023-04-16T01:03:36;24.10;;;12.90;;
1479;SDS011;732;51.698;4.886;2023-04-16T01:06:06;27.10;;;13.47;;
1479;SDS011;732;51.698;4.886;2023-04-16T01:08:36;26.70;;;12.90;;
1479;SDS011;732;51.698;4.886;2023-04-16T01:11:04;19.70;;;13.20;;
1479;SDS011;732;51.698;4.886;2023-04-16T01:13:33;31.73;;;14.30;;
1479;SDS011;732;51.698;4.886;2023-04-16T01:16:04;37.43;;;15.63;;
1479;SDS011;732;51.698;4.886;2023-04-16T01:18:35;25.90;;;15.13;;
1479;SDS011;732;51.698;4.886;2023-04-16T01:21:05;27.53;;;14.00;;
1479;SDS011;732;51.698;4.886;2023-04-16T01:23:33;30.70;;;14.13;;
1479;SDS011;732;51.698;4.886;2023-04-16T01:26:02;24.23;;;14.33;;
1479;SDS011;732;51.698;4.886;2023-04-16T01:28:30;22.40;;;12.97;;
1479;SDS011;732;51.698;4.886;2023-04-16T01:30:58;21.27;;;12.30;;
1479;SDS011;732;51.698;4.886;2023-04-16T01:33:39;22.50;;;12.97;;
1479;SDS011;732;51.698;4.886;2023-04-16T01:36:10;22.70;;;11.57;;
1479;SDS011;732;51.698;4.886;2023-04-16T01:38:38;29.43;;;13.77;;
1479;SDS011;732;51.698;4.886;2023-04-16T01:41:06;15.67;;;10.40;;
1479;SDS011;732;51.698;4.886;2023-04-16T01:43:34;16.10;;;9.53;;
1479;SDS011;732;51.698;4.886;2023-04-16T01:46:11;15.87;;;9.90;;
1479;SDS011;732;51.698;4.886;2023-04-16T01:48:44;17.50;;;10.27;;
1479;SDS011;732;51.698;4.886;2023-04-16T01:51:14;13.33;;;9.20;;
1479;SDS011;732;51.698;4.886;2023-04-16T01:53:43;15.90;;;8.93;;
1479;SDS011;732;51.698;4.886;2023-04-16T01:56:11;16.23;;;9.10;;
1479;SDS011;732;51.698;4.886;2023-04-16T01:58:39;18.00;;;9.60;;
1479;SDS011;732;51.698;4.886;2023-04-16T02:01:08;17.83;;;9.70;;
1479;SDS011;732;51.698;4.886;2023-04-16T02:03:37;14.83;;;10.03;;
1479;SDS011;732;51.698;4.886;2023-04-16T02:06:06;17.43;;;10.73;;
1479;SDS011;732;51.698;4.886;2023-04-16T02:08:35;20.00;;;11.70;;
1479;SDS011;732;51.698;4.886;2023-04-16T02:11:04;24.60;;;12.20;;
1479;SDS011;732;51.698;4.886;2023-04-16T02:13:32;16.43;;;11.10;;
1479;SDS011;732;51.698;4.886;2023-04-16T02:16:01;15.80;;;9.90;;
1479;SDS011;732;51.698;4.886;2023-04-16T02:18:55;18.03;;;11.37;;
1479;SDS011;732;51.698;4.886;2023-04-16T02:21:26;20.47;;;11.53;;
1479;SDS011;732;51.698;4.886;2023-04-16T02:23:56;18.10;;;12.30;;
1479;SDS011;732;51.698;4.886;2023-04-16T02:26:27;27.10;;;12.13;;
1479;SDS011;732;51.698;4.886;2023-04-16T02:29:00;22.10;;;11.90;;
1479;SDS011;732;51.698;4.886;2023-04-16T02:31:36;22.63;;;11.27;;
1479;SDS011;732;51.698;4.886;2023-04-16T02:34:05;20.57;;;11.30;;
1479;SDS011;732;51.698;4.886;2023-04-16T02:36:33;27.00;;;12.60;;
1479;SDS011;732;51.698;4.886;2023-04-16T02:39:03;24.70;;;11.47;;
1479;SDS011;732;51.698;4.886;2023-04-16T02:41:32;22.93;;;11.73;;
1479;SDS011;732;51.698;4.886;2023-04-16T02:44:00;21.27;;;12.00;;
1479;SDS011;732;51.698;4.886;2023-04-16T02:46:28;20.27;;;12.50;;
1479;SDS011;732;51.698;4.886;2023-04-16T02:48:56;25.70;;;12.33;;
1479;SDS011;732;51.698;4.886;2023-04-16T02:51:24;22.83;;;11.77;;
1479;SDS011;732;51.698;4.886;2023-04-16T02:53:52;27.00;;;13.40;;
1479;SDS011;732;51.698;4.886;2023-04-16T02:56:22;25.63;;;13.70;;
1479;SDS011;732;51.698;4.886;2023-04-16T02:58:50;21.07;;;11.60;;
1479;SDS011;732;51.698;4.886;2023-04-16T03:01:18;33.77;;;13.40;;
1479;SDS011;732;51.698;4.886;2023-04-16T03:03:46;24.70;;;13.03;;
1479;SDS011;732;51.698;4.886;2023-04-16T03:06:15;29.10;;;13.17;;
1479;SDS011;732;51.698;4.886;2023-04-16T03:08:43;24.13;;;11.23;;
1479;SDS011;732;51.698;4.886;2023-04-16T03:11:11;21.63;;;10.90;;
1479;SDS011;732;51.698;4.886;2023-04-16T03:13:40;24.40;;;10.20;;
1479;SDS011;732;51.698;4.886;2023-04-16T03:16:08;23.73;;;10.67;;
1479;SDS011;732;51.698;4.886;2023-04-16T03:18:37;16.33;;;9.70;;
1479;SDS011;732;51.698;4.886;2023-04-16T03:21:05;21.13;;;8.80;;
1479;SDS011;732;51.698;4.886;2023-04-16T03:23:33;22.80;;;10.07;;
1479;SDS011;732;51.698;4.886;2023-04-16T03:26:04;18.10;;;9.73;;
1479;SDS011;732;51.698;4.886;2023-04-16T03:28:32;18.53;;;8.40;;
1479;SDS011;732;51.698;4.886;2023-04-16T03:31:02;17.80;;;7.90;;
1479;SDS011;732;51.698;4.886;2023-04-16T03:33:30;20.33;;;8.77;;
1479;SDS011;732;51.698;4.886;2023-04-16T03:35:58;20.30;;;8.73;;
1479;SDS011;732;51.698;4.886;2023-04-16T03:38:29;19.20;;;8.40;;
1479;SDS011;732;51.698;4.886;2023-04-16T03:40:57;21.80;;;8.53;;
1479;SDS011;732;51.698;4.886;2023-04-16T03:43:28;22.80;;;8.77;;
1479;SDS011;732;51.698;4.886;2023-04-16T03:45:56;19.43;;;8.97;;
1479;SDS011;732;51.698;4.886;2023-04-16T03:48:26;31.10;;;8.80;;
1479;SDS011;732;51.698;4.886;2023-04-16T03:50:54;19.53;;;8.77;;
1479;SDS011;732;51.698;4.886;2023-04-16T03:53:22;19.37;;;9.00;;
1479;SDS011;732;51.698;4.886;2023-04-16T03:55:50;20.67;;;9.23;;
1479;SDS011;732;51.698;4.886;2023-04-16T03:58:20;19.70;;;9.00;;
1479;SDS011;732;51.698;4.886;2023-04-16T04:00:51;24.37;;;9.97;;
1479;SDS011;732;51.698;4.886;2023-04-16T04:03:23;16.43;;;8.70;;
1479;SDS011;732;51.698;4.886;2023-04-16T04:05:54;18.83;;;9.77;;
1479;SDS011;732;51.698;4.886;2023-04-16T04:08:26;19.37;;;8.37;;
1479;SDS011;732;51.698;4.886;2023-04-16T04:10:54;24.67;;;10.10;;
1479;SDS011;732;51.698;4.886;2023-04-16T04:13:23;17.40;;;9.63;;
1479;SDS011;732;51.698;4.886;2023-04-16T04:15:52;19.87;;;9.10;;
1479;SDS011;732;51.698;4.886;2023-04-16T04:18:21;16.70;;;8.90;;
1479;SDS011;732;51.698;4.886;2023-04-16T04:20:50;18.37;;;8.43;;
1479;SDS011;732;51.698;4.886;2023-04-16T04:23:23;22.57;;;9.50;;
1479;SDS011;732;51.698;4.886;2023-04-16T04:25:51;23.00;;;9.70;;
1479;SDS011;732;51.698;4.886;2023-04-16T04:28:19;19.00;;;10.30;;
1479;SDS011;732;51.698;4.886;2023-04-16T04:30:47;17.73;;;9.03;;
1479;SDS011;732;51.698;4.886;2023-04-16T04:33:16;21.57;;;9.90;;
1479;SDS011;732;51.698;4.886;2023-04-16T04:35:46;22.93;;;9.77;;
1479;SDS011;732;51.698;4.886;2023-04-16T04:38:14;21.53;;;9.90;;
1479;SDS011;732;51.698;4.886;2023-04-16T04:40:46;17.33;;;9.90;;
1479;SDS011;732;51.698;4.886;2023-04-16T04:43:16;26.00;;;11.33;;
1479;SDS011;732;51.698;4.886;2023-04-16T04:45:44;23.63;;;10.53;;
1479;SDS011;732;51.698;4.886;2023-04-16T04:48:14;29.57;;;12.03;;
1479;SDS011;732;51.698;4.886;2023-04-16T04:50:44;26.40;;;12.03;;
1479;SDS011;732;51.698;4.886;2023-04-16T04:53:12;22.90;;;11.37;;
1479;SDS011;732;51.698;4.886;2023-04-16T04:55:41;24.87;;;11.63;;
1479;SDS011;732;51.698;4.886;2023-04-16T04:58:10;29.57;;;11.43;;
1479;SDS011;732;51.698;4.886;2023-04-16T05:00:40;24.73;;;10.90;;
1479;SDS011;732;51.698;4.886;2023-04-16T05:03:09;24.10;;;11.30;;
1479;SDS011;732;51.698;4.886;2023-04-16T05:05:38;22.27;;;11.47;;
1479;SDS011;732;51.698;4.886;2023-04-16T05:08:07;21.70;;;11.00;;
1479;SDS011;732;51.698;4.886;2023-04-16T05:10:35;18.73;;;11.90;;
1479;SDS011;732;51.698;4.886;2023-04-16T05:13:05;23.67;;;12.50;;
1479;SDS011;732;51.698;4.886;2023-04-16T05:15:34;23.30;;;12.73;;
1479;SDS011;732;51.698;4.886;2023-04-16T05:18:03;25.13;;;14.27;;
1479;SDS011;732;51.698;4.886;2023-04-16T05:20:31;30.67;;;15.60;;
1479;SDS011;732;51.698;4.886;2023-04-16T05:23:03;32.43;;;15.43;;
1479;SDS011;732;51.698;4.886;2023-04-16T05:25:31;29.10;;;14.93;;
1479;SDS011;732;51.698;4.886;2023-04-16T05:27:59;26.80;;;15.47;;
1479;SDS011;732;51.698;4.886;2023-04-16T05:30:27;31.83;;;16.13;;
1479;SDS011;732;51.698;4.886;2023-04-16T05:32:57;27.07;;;17.17;;
1479;SDS011;732;51.698;4.886;2023-04-16T05:35:25;38.73;;;19.00;;
1479;SDS011;732;51.698;4.886;2023-04-16T05:37:53;34.13;;;18.50;;
1479;SDS011;732;51.698;4.886;2023-04-16T05:40:22;40.87;;;19.47;;
1479;SDS011;732;51.698;4.886;2023-04-16T05:42:50;31.90;;;18.70;;
1479;SDS011;732;51.698;4.886;2023-04-16T05:45:18;37.47;;;19.63;;
1479;SDS011;732;51.698;4.886;2023-04-16T05:47:46;41.20;;;18.97;;
1479;SDS011;732;51.698;4.886;2023-04-16T05:50:16;48.47;;;17.83;;
1479;SDS011;732;51.698;4.886;2023-04-16T05:52:44;36.07;;;18.47;;
1479;SDS011;732;51.698;4.886;2023-04-16T05:55:12;35.23;;;16.63;;
1479;SDS011;732;51.698;4.886;2023-04-16T05:57:40;33.53;;;16.47;;
1479;SDS011;732;51.698;4.886;2023-04-16T06:00:08;38.50;;;17.90;;
1479;SDS011;732;51.698;4.886;2023-04-16T06:02:37;35.23;;;16.90;;
1479;SDS011;732;51.698;4.886;2023-04-16T06:05:07;30.13;;;16.70;;
1479;SDS011;732;51.698;4.886;2023-04-16T06:07:37;33.23;;;17.17;;
1479;SDS011;732;51.698;4.886;2023-04-16T06:10:05;43.43;;;18.30;;
1479;SDS011;732;51.698;4.886;2023-04-16T06:12:34;42.40;;;19.30;;
1479;SDS011;732;51.698;4.886;2023-04-16T06:15:02;44.10;;;20.70;;
1479;SDS011;732;51.698;4.886;2023-04-16T06:17:31;35.97;;;20.97;;
1479;SDS011;732;51.698;4.886;2023-04-16T06:20:00;43.13;;;23.80;;
1479;SDS011;732;51.698;4.886;2023-04-16T06:22:30;49.80;;;22.13;;
1479;SDS011;732;51.698;4.886;2023-04-16T06:25:00;44.43;;;20.47;;
1479;SDS011;732;51.698;4.886;2023-04-16T06:27:28;39.60;;;20.27;;
1479;SDS011;732;51.698;4.886;2023-04-16T06:29:58;31.83;;;17.83;;
1479;SDS011;732;51.698;4.886;2023-04-16T06:32:26;30.90;;;17.00;;
1479;SDS011;732;51.698;4.886;2023-04-16T06:34:54;33.43;;;19.90;;
1479;SDS011;732;51.698;4.886;2023-04-16T06:37:23;34.20;;;19.60;;
1479;SDS011;732;51.698;4.886;2023-04-16T06:39:52;34.47;;;18.50;;
1479;SDS011;732;51.698;4.886;2023-04-16T06:42:21;32.77;;;17.23;;
1479;SDS011;732;51.698;4.886;2023-04-16T06:44:50;37.53;;;17.97;;
1479;SDS011;732;51.698;4.886;2023-04-16T06:47:18;30.33;;;14.80;;
1479;SDS011;732;51.698;4.886;2023-04-16T06:49:46;32.83;;;15.90;;
1479;SDS011;732;51.698;4.886;2023-04-16T06:52:14;28.57;;;14.87;;
1479;SDS011;732;51.698;4.886;2023-04-16T06:54:42;35.67;;;17.57;;
1479;SDS011;732;51.698;4.886;2023-04-16T06:57:10;36.80;;;17.17;;
1479;SDS011;732;51.698;4.886;2023-04-16T06:59:40;27.77;;;18.20;;
1479;SDS011;732;51.698;4.886;2023-04-16T07:02:09;40.30;;;18.83;;
1479;SDS011;732;51.698;4.886;2023-04-16T07:04:37;35.53;;;16.97;;
1479;SDS011;732;51.698;4.886;2023-04-16T07:07:05;27.40;;;15.13;;
1479;SDS011;732;51.698;4.886;2023-04-16T07:09:35;33.60;;;16.80;;
1479;SDS011;732;51.698;4.886;2023-04-16T07:12:03;33.83;;;15.40;;
1479;SDS011;732;51.698;4.886;2023-04-16T07:14:32;26.10;;;14.20;;
1479;SDS011;732;51.698;4.886;2023-04-16T07:17:01;28.33;;;13.80;;
1479;SDS011;732;51.698;4.886;2023-04-16T07:19:48;30.97;;;13.70;;
1479;SDS011;732;51.698;4.886;2023-04-16T07:22:18;30.80;;;13.47;;
1479;SDS011;732;51.698;4.886;2023-04-16T07:24:46;35.03;;;14.87;;
1479;SDS011;732;51.698;4.886;2023-04-16T07:27:14;34.70;;;16.40;;
1479;SDS011;732;51.698;4.886;2023-04-16T07:29:43;37.23;;;15.13;;
1479;SDS011;732;51.698;4.886;2023-04-16T07:32:13;31.50;;;17.07;;
1479;SDS011;732;51.698;4.886;2023-04-16T07:34:41;31.53;;;15.73;;
1479;SDS011;732;51.698;4.886;2023-04-16T07:37:09;35.97;;;18.57;;
1479;SDS011;732;51.698;4.886;2023-04-16T07:39:37;34.30;;;18.30;;
1479;SDS011;732;51.698;4.886;2023-04-16T07:42:05;33.47;;;18.27;;
1479;SDS011;732;51.698;4.886;2023-04-16T07:44:34;38.40;;;17.70;;
1479;SDS011;732;51.698;4.886;2023-04-16T07:47:02;30.70;;;18.00;;
1479;SDS011;732;51.698;4.886;2023-04-16T07:49:32;38.40;;;18.47;;
1479;SDS011;732;51.698;4.886;2023-04-16T07:52:00;36.07;;;17.57;;
1479;SDS011;732;51.698;4.886;2023-04-16T07:54:28;31.70;;;17.73;;
1479;SDS011;732;51.698;4.886;2023-04-16T07:56:56;42.17;;;16.87;;
1479;SDS011;732;51.698;4.886;2023-04-16T07:59:25;37.30;;;16.80;;
1479;SDS011;732;51.698;4.886;2023-04-16T08:01:53;38.77;;;16.73;;
1479;SDS011;732;51.698;4.886;2023-04-16T08:04:21;34.17;;;17.63;;
1479;SDS011;732;51.698;4.886;2023-04-16T08:06:53;33.10;;;17.80;;
1479;SDS011;732;51.698;4.886;2023-04-16T08:09:21;39.80;;;20.00;;
1479;SDS011;732;51.698;4.886;2023-04-16T08:11:53;42.63;;;18.90;;
1479;SDS011;732;51.698;4.886;2023-04-16T08:14:22;43.70;;;18.03;;
1479;SDS011;732;51.698;4.886;2023-04-16T08:16:50;40.63;;;17.97;;
1479;SDS011;732;51.698;4.886;2023-04-16T08:19:18;47.93;;;19.90;;
1479;SDS011;732;51.698;4.886;2023-04-16T08:21:46;38.80;;;17.23;;
1479;SDS011;732;51.698;4.886;2023-04-16T08:24:16;41.60;;;18.37;;
1479;SDS011;732;51.698;4.886;2023-04-16T08:26:44;40.20;;;18.40;;
1479;SDS011;732;51.698;4.886;2023-04-16T08:29:12;42.27;;;18.70;;
1479;SDS011;732;51.698;4.886;2023-04-16T08:31:40;36.60;;;18.17;;
1479;SDS011;732;51.698;4.886;2023-04-16T08:34:09;44.13;;;19.50;;
1479;SDS011;732;51.698;4.886;2023-04-16T08:36:37;35.00;;;18.27;;
1479;SDS011;732;51.698;4.886;2023-04-16T08:39:06;38.13;;;18.20;;
1479;SDS011;732;51.698;4.886;2023-04-16T08:41:44;41.70;;;18.83;;
1479;SDS011;732;51.698;4.886;2023-04-16T08:44:13;39.07;;;17.80;;
1479;SDS011;732;51.698;4.886;2023-04-16T08:46:47;33.43;;;18.57;;
1479;SDS011;732;51.698;4.886;2023-04-16T08:49:17;37.17;;;18.17;;
1479;SDS011;732;51.698;4.886;2023-04-16T08:51:48;35.17;;;17.43;;
1479;SDS011;732;51.698;4.886;2023-04-16T08:54:20;30.70;;;17.83;;
1479;SDS011;732;51.698;4.886;2023-04-16T08:57:03;32.33;;;17.27;;
1479;SDS011;732;51.698;4.886;2023-04-16T08:59:37;30.80;;;17.17;;
1479;SDS011;732;51.698;4.886;2023-04-16T09:02:06;37.37;;;17.60;;
1479;SDS011;732;51.698;4.886;2023-04-16T09:04:39;34.93;;;18.03;;
1479;SDS011;732;51.698;4.886;2023-04-16T09:07:11;31.60;;;16.93;;
1479;SDS011;732;51.698;4.886;2023-04-16T09:09:42;39.67;;;18.80;;
1479;SDS011;732;51.698;4.886;2023-04-16T09:12:12;27.93;;;15.70;;
1479;SDS011;732;51.698;4.886;2023-04-16T09:14:41;31.87;;;16.40;;
1479;SDS011;732;51.698;4.886;2023-04-16T09:17:09;33.67;;;16.43;;
1479;SDS011;732;51.698;4.886;2023-04-16T09:19:39;35.70;;;17.23;;
1479;SDS011;732;51.698;4.886;2023-04-16T09:22:10;27.00;;;17.10;;
1479;SDS011;732;51.698;4.886;2023-04-16T09:24:38;33.60;;;17.60;;
1479;SDS011;732;51.698;4.886;2023-04-16T09:27:09;31.73;;;17.57;;
1479;SDS011;732;51.698;4.886;2023-04-16T09:29:40;41.87;;;20.00;;
1479;SDS011;732;51.698;4.886;2023-04-16T09:32:09;39.03;;;19.00;;
1479;SDS011;732;51.698;4.886;2023-04-16T09:34:54;34.40;;;17.63;;
1479;SDS011;732;51.698;4.886;2023-04-16T09:37:27;35.20;;;17.97;;
1479;SDS011;732;51.698;4.886;2023-04-16T09:39:57;31.97;;;15.77;;
1479;SDS011;732;51.698;4.886;2023-04-16T09:42:28;35.07;;;16.93;;
1479;SDS011;732;51.698;4.886;2023-04-16T09:44:59;33.83;;;17.40;;
1479;SDS011;732;51.698;4.886;2023-04-16T09:47:37;30.13;;;16.90;;
1479;SDS011;732;51.698;4.886;2023-04-16T09:50:08;32.13;;;18.43;;
1479;SDS011;732;51.698;4.886;2023-04-16T09:52:44;36.40;;;19.57;;
1479;SDS011;732;51.698;4.886;2023-04-16T09:55:15;35.90;;;20.30;;
1479;SDS011;732;51.698;4.886;2023-04-16T09:57:48;41.50;;;18.60;;
1479;SDS011;732;51.698;4.886;2023-04-16T10:00:27;37.60;;;19.10;;
1479;SDS011;732;51.698;4.886;2023-04-16T10:03:03;34.17;;;18.50;;
1479;SDS011;732;51.698;4.886;2023-04-16T10:05:32;39.57;;;19.37;;
1479;SDS011;732;51.698;4.886;2023-04-16T10:08:00;43.83;;;20.27;;
1479;SDS011;732;51.698;4.886;2023-04-16T10:10:32;36.47;;;20.33;;
1479;SDS011;732;51.698;4.886;2023-04-16T10:13:00;38.17;;;20.43;;
1479;SDS011;732;51.698;4.886;2023-04-16T10:15:30;42.40;;;20.10;;
1479;SDS011;732;51.698;4.886;2023-04-16T10:17:58;30.33;;;19.00;;
1479;SDS011;732;51.698;4.886;2023-04-16T10:20:27;43.47;;;21.37;;
1479;SDS011;732;51.698;4.886;2023-04-16T10:22:56;36.60;;;18.50;;
1479;SDS011;732;51.698;4.886;2023-04-16T10:25:25;34.13;;;17.90;;
1479;SDS011;732;51.698;4.886;2023-04-16T10:27:54;43.13;;;18.37;;
1479;SDS011;732;51.698;4.886;2023-04-16T10:30:26;36.03;;;18.17;;
1479;SDS011;732;51.698;4.886;2023-04-16T10:32:55;28.90;;;17.10;;
1479;SDS011;732;51.698;4.886;2023-04-16T10:35:26;31.30;;;18.73;;
1479;SDS011;732;51.698;4.886;2023-04-16T10:37:55;34.73;;;18.73;;
1479;SDS011;732;51.698;4.886;2023-04-16T10:40:24;35.80;;;19.90;;
1479;SDS011;732;51.698;4.886;2023-04-16T10:42:55;31.90;;;17.27;;
1479;SDS011;732;51.698;4.886;2023-04-16T10:45:37;31.77;;;18.43;;
1479;SDS011;732;51.698;4.886;2023-04-16T10:48:07;38.60;;;17.37;;
1479;SDS011;732;51.698;4.886;2023-04-16T10:50:37;31.57;;;17.03;;
1479;SDS011;732;51.698;4.886;2023-04-16T10:53:16;32.40;;;16.30;;
1479;SDS011;732;51.698;4.886;2023-04-16T10:58:40;24.10;;;15.47;;
1479;SDS011;732;51.698;4.886;2023-04-16T11:01:12;29.70;;;16.50;;
1479;SDS011;732;51.698;4.886;2023-04-16T11:03:45;28.30;;;17.17;;
1479;SDS011;732;51.698;4.886;2023-04-16T11:06:15;30.83;;;16.30;;
1479;SDS011;732;51.698;4.886;2023-04-16T11:08:51;37.23;;;18.13;;
1479;SDS011;732;51.698;4.886;2023-04-16T11:11:22;26.77;;;16.90;;
1479;SDS011;732;51.698;4.886;2023-04-16T11:13:53;28.03;;;17.03;;
1479;SDS011;732;51.698;4.886;2023-04-16T11:16:25;31.03;;;18.40;;
1479;SDS011;732;51.698;4.886;2023-04-16T11:18:55;28.57;;;17.00;;
1479;SDS011;732;51.698;4.886;2023-04-16T11:21:25;36.03;;;18.43;;
1479;SDS011;732;51.698;4.886;2023-04-16T11:23:57;39.70;;;18.13;;
1479;SDS011;732;51.698;4.886;2023-04-16T11:26:25;31.40;;;17.73;;
1479;SDS011;732;51.698;4.886;2023-04-16T11:28:56;33.33;;;18.30;;
1479;SDS011;732;51.698;4.886;2023-04-16T11:31:25;32.13;;;17.73;;
1479;SDS011;732;51.698;4.886;2023-04-16T11:33:55;30.33;;;18.77;;
1479;SDS011;732;51.698;4.886;2023-04-16T11:36:25;32.37;;;19.53;;
1479;SDS011;732;51.698;4.886;2023-04-16T11:39:00;33.37;;;16.83;;
1479;SDS011;732;51.698;4.886;2023-04-16T11:41:29;28.70;;;18.23;;
1479;SDS011;732;51.698;4.886;2023-04-16T11:43:57;34.70;;;18.97;;
1479;SDS011;732;51.698;4.886;2023-04-16T11:46:36;33.10;;;19.00;;
1479;SDS011;732;51.698;4.886;2023-04-16T11:49:07;37.03;;;19.50;;
1479;SDS011;732;51.698;4.886;2023-04-16T11:51:39;31.70;;;19.40;;
1479;SDS011;732;51.698;4.886;2023-04-16T11:54:07;28.90;;;19.10;;
1479;SDS011;732;51.698;4.886;2023-04-16T11:56:37;30.87;;;19.83;;
1479;SDS011;732;51.698;4.886;2023-04-16T11:59:12;29.33;;;17.93;;
1479;SDS011;732;51.698;4.886;2023-04-16T12:01:44;31.17;;;18.80;;
1479;SDS011;732;51.698;4.886;2023-04-16T12:04:17;37.40;;;21.30;;
1479;SDS011;732;51.698;4.886;2023-04-16T12:07:03;34.03;;;20.43;;
1479;SDS011;732;51.698;4.886;2023-04-16T12:09:36;31.80;;;19.70;;
1479;SDS011;732;51.698;4.886;2023-04-16T12:12:19;34.63;;;20.07;;
1479;SDS011;732;51.698;4.886;2023-04-16T12:14:52;32.03;;;20.80;;
1479;SDS011;732;51.698;4.886;2023-04-16T12:17:22;32.30;;;19.90;;
1479;SDS011;732;51.698;4.886;2023-04-16T12:19:56;41.77;;;21.10;;
1479;SDS011;732;51.698;4.886;2023-04-16T12:22:26;32.10;;;19.83;;
1479;SDS011;732;51.698;4.886;2023-04-16T12:24:59;32.73;;;19.37;;
1479;SDS011;732;51.698;4.886;2023-04-16T12:27:45;36.67;;;19.90;;
1479;SDS011;732;51.698;4.886;2023-04-16T12:30:19;31.07;;;19.00;;
1479;SDS011;732;51.698;4.886;2023-04-16T12:32:50;32.17;;;19.07;;
1479;SDS011;732;51.698;4.886;2023-04-16T12:35:32;35.67;;;18.80;;
1479;SDS011;732;51.698;4.886;2023-04-16T12:38:00;35.37;;;19.93;;
1479;SDS011;732;51.698;4.886;2023-04-16T12:40:29;33.63;;;19.70;;
1479;SDS011;732;51.698;4.886;2023-04-16T12:42:57;39.00;;;19.67;;
1479;SDS011;732;51.698;4.886;2023-04-16T12:45:26;31.20;;;21.67;;
1479;SDS011;732;51.698;4.886;2023-04-16T12:47:55;35.80;;;22.80;;
1479;SDS011;732;51.698;4.886;2023-04-16T12:50:23;43.40;;;25.50;;
1479;SDS011;732;51.698;4.886;2023-04-16T12:52:53;42.93;;;26.90;;
1479;SDS011;732;51.698;4.886;2023-04-16T12:55:22;56.77;;;28.30;;
1479;SDS011;732;51.698;4.886;2023-04-16T12:57:50;45.50;;;26.53;;
1479;SDS011;732;51.698;4.886;2023-04-16T13:00:19;44.40;;;26.10;;
1479;SDS011;732;51.698;4.886;2023-04-16T13:02:48;43.07;;;26.20;;
1479;SDS011;732;51.698;4.886;2023-04-16T13:05:16;49.67;;;24.63;;
1479;SDS011;732;51.698;4.886;2023-04-16T13:07:45;36.47;;;22.10;;
1479;SDS011;732;51.698;4.886;2023-04-16T13:10:14;36.00;;;20.70;;
1479;SDS011;732;51.698;4.886;2023-04-16T13:12:42;33.30;;;19.93;;
1479;SDS011;732;51.698;4.886;2023-04-16T13:15:12;30.97;;;18.03;;
1479;SDS011;732;51.698;4.886;2023-04-16T13:17:42;33.57;;;17.17;;
1479;SDS011;732;51.698;4.886;2023-04-16T13:20:12;29.00;;;17.60;;
1479;SDS011;732;51.698;4.886;2023-04-16T13:22:40;25.87;;;17.90;;
1479;SDS011;732;51.698;4.886;2023-04-16T13:25:08;27.53;;;17.43;;
1479;SDS011;732;51.698;4.886;2023-04-16T13:27:38;28.87;;;17.70;;
1479;SDS011;732;51.698;4.886;2023-04-16T13:30:07;30.73;;;18.97;;
1479;SDS011;732;51.698;4.886;2023-04-16T13:32:35;28.80;;;19.30;;
1479;SDS011;732;51.698;4.886;2023-04-16T13:35:04;28.30;;;18.47;;
1479;SDS011;732;51.698;4.886;2023-04-16T13:37:33;33.13;;;18.30;;
1479;SDS011;732;51.698;4.886;2023-04-16T13:40:01;31.80;;;17.60;;
1479;SDS011;732;51.698;4.886;2023-04-16T13:42:29;31.57;;;20.43;;
1479;SDS011;732;51.698;4.886;2023-04-16T13:45:01;32.50;;;19.60;;
1479;SDS011;732;51.698;4.886;2023-04-16T13:47:30;31.70;;;18.27;;
1479;SDS011;732;51.698;4.886;2023-04-16T13:49:58;31.27;;;18.57;;
1479;SDS011;732;51.698;4.886;2023-04-16T13:52:26;35.57;;;18.50;;
1479;SDS011;732;51.698;4.886;2023-04-16T13:54:54;28.87;;;17.67;;
1479;SDS011;732;51.698;4.886;2023-04-16T13:57:25;27.40;;;16.10;;
1479;SDS011;732;51.698;4.886;2023-04-16T13:59:54;22.57;;;15.97;;
1479;SDS011;732;51.698;4.886;2023-04-16T14:02:24;24.00;;;16.83;;
1479;SDS011;732;51.698;4.886;2023-04-16T14:04:52;28.57;;;16.70;;
1479;SDS011;732;51.698;4.886;2023-04-16T14:07:20;24.60;;;15.17;;
1479;SDS011;732;51.698;4.886;2023-04-16T14:09:52;24.77;;;16.43;;
1479;SDS011;732;51.698;4.886;2023-04-16T14:12:20;27.00;;;15.77;;
1479;SDS011;732;51.698;4.886;2023-04-16T14:14:48;26.53;;;17.37;;
1479;SDS011;732;51.698;4.886;2023-04-16T14:17:17;29.00;;;16.40;;
1479;SDS011;732;51.698;4.886;2023-04-16T14:19:46;30.10;;;17.60;;
1479;SDS011;732;51.698;4.886;2023-04-16T14:22:14;36.07;;;19.57;;
1479;SDS011;732;51.698;4.886;2023-04-16T14:24:43;41.43;;;21.17;;
1479;SDS011;732;51.698;4.886;2023-04-16T14:27:11;30.60;;;21.90;;
1479;SDS011;732;51.698;4.886;2023-04-16T14:29:40;40.20;;;24.30;;
1479;SDS011;732;51.698;4.886;2023-04-16T14:32:08;33.73;;;23.83;;
1479;SDS011;732;51.698;4.886;2023-04-16T14:34:37;33.07;;;23.27;;
1479;SDS011;732;51.698;4.886;2023-04-16T14:37:06;33.30;;;22.03;;
1479;SDS011;732;51.698;4.886;2023-04-16T14:39:34;39.97;;;22.80;;
1479;SDS011;732;51.698;4.886;2023-04-16T14:42:04;36.10;;;23.30;;
1479;SDS011;732;51.698;4.886;2023-04-16T14:44:32;41.60;;;24.00;;
1479;SDS011;732;51.698;4.886;2023-04-16T14:47:01;37.23;;;25.50;;
1479;SDS011;732;51.698;4.886;2023-04-16T14:49:29;34.43;;;24.33;;
1479;SDS011;732;51.698;4.886;2023-04-16T14:51:58;40.60;;;25.20;;
1479;SDS011;732;51.698;4.886;2023-04-16T14:54:28;39.40;;;25.10;;
1479;SDS011;732;51.698;4.886;2023-04-16T14:56:57;43.87;;;26.47;;
1479;SDS011;732;51.698;4.886;2023-04-16T14:59:27;45.83;;;25.73;;
1479;SDS011;732;51.698;4.886;2023-04-16T15:01:56;41.33;;;26.13;;
1479;SDS011;732;51.698;4.886;2023-04-16T15:04:25;43.57;;;25.80;;
1479;SDS011;732;51.698;4.886;2023-04-16T15:06:53;43.73;;;26.90;;
1479;SDS011;732;51.698;4.886;2023-04-16T15:09:24;39.13;;;28.00;;
1479;SDS011;732;51.698;4.886;2023-04-16T15:11:54;43.83;;;25.90;;
1479;SDS011;732;51.698;4.886;2023-04-16T15:14:23;38.90;;;25.00;;
1479;SDS011;732;51.698;4.886;2023-04-16T15:16:51;41.70;;;25.27;;
1479;SDS011;732;51.698;4.886;2023-04-16T15:19:20;36.60;;;24.83;;
1479;SDS011;732;51.698;4.886;2023-04-16T15:21:48;36.30;;;25.50;;